Time;durP1;ratioP1;P1;durP2;ratioP2;P2;SDS_P1;SDS_P2;PMS_P1;PMS_P2;Temp;Humidity;BMP_temperature;BMP_pressure;BME280_temperature;BME280_humidity;BME280_pressure;Samples;Min_cycle;Max_cycle;Signal;HPM_P1;HPM_P2
2021/08/08 00:00:50;;;;;;;24.35;15.43;;;15.80;99.90;;;;;;4988256;28;25068;-62
2021/08/08 00:03:15;;;;;;;29.35;13.98;;;15.90;99.90;;;;;;4987927;28;25060;-60
2021/08/08 00:05:41;;;;;;;27.80;13.35;;;15.90;99.90;;;;;;4988335;28;25105;-61
2021/08/08 00:08:06;;;;;;;28.50;13.32;;;15.90;99.90;;;;;;4988575;28;25089;-61
2021/08/08 00:10:32;;;;;;;23.20;13.70;;;15.80;99.90;;;;;;4988269;28;25069;-62
2021/08/08 00:12:58;;;;;;;23.20;14.43;;;15.80;99.90;;;;;;4987864;28;25152;-61
2021/08/08 00:15:23;;;;;;;36.83;15.68;;;15.80;99.90;;;;;;4991834;28;25076;-62
2021/08/08 00:17:49;;;;;;;30.80;16.80;;;15.70;99.90;;;;;;4993325;28;25109;-62
2021/08/08 00:20:14;;;;;;;33.85;16.50;;;15.80;99.90;;;;;;4987552;28;25070;-63
2021/08/08 00:22:40;;;;;;;30.48;17.30;;;15.80;99.90;;;;;;4987838;28;25073;-63
2021/08/08 00:25:08;;;;;;;51.58;19.25;;;15.80;99.90;;;;;;4987555;28;25059;-63
2021/08/08 00:27:35;;;;;;;44.67;18.38;;;15.70;99.90;;;;;;4988011;28;25185;-63
2021/08/08 00:30:01;;;;;;;48.95;19.88;;;15.70;99.90;;;;;;4987530;28;25099;-61
2021/08/08 00:32:26;;;;;;;40.80;19.27;;;15.70;99.90;;;;;;4985649;28;25114;-62
2021/08/08 00:34:52;;;;;;;31.92;16.33;;;15.70;99.90;;;;;;4991541;28;25072;-61
2021/08/08 00:37:17;;;;;;;40.42;16.33;;;15.70;99.90;;;;;;4987406;28;25085;-62
2021/08/08 00:39:43;;;;;;;33.80;18.42;;;15.60;99.90;;;;;;4986446;28;25169;-61
2021/08/08 00:42:08;;;;;;;42.35;20.25;;;15.70;99.90;;;;;;4988737;28;25076;-60
2021/08/08 00:44:34;;;;;;;44.92;19.15;;;15.70;99.90;;;;;;4988922;28;25053;-62
2021/08/08 00:46:59;;;;;;;45.15;20.40;;;15.60;99.90;;;;;;4987327;28;25052;-60
2021/08/08 00:49:25;;;;;;;36.22;18.58;;;15.70;99.90;;;;;;4988480;28;25064;-60
2021/08/08 00:51:51;;;;;;;42.38;20.50;;;15.70;99.90;;;;;;4994052;28;25061;-64
2021/08/08 00:54:17;;;;;;;55.50;22.98;;;15.70;99.90;;;;;;4986882;28;25144;-65
2021/08/08 00:56:42;;;;;;;63.65;23.65;;;15.70;99.90;;;;;;4987152;28;25156;-62
2021/08/08 00:59:08;;;;;;;61.92;22.48;;;15.70;99.90;;;;;;4990303;28;25079;-63
2021/08/08 01:01:41;;;;;;;53.97;22.17;;;15.60;99.90;;;;;;4987041;28;25101;-62
2021/08/08 01:04:10;;;;;;;68.75;22.85;;;15.60;99.90;;;;;;4986336;28;25055;-60
2021/08/08 01:07:04;;;;;;;53.58;21.05;;;15.60;99.90;;;;;;4986556;28;25068;-62
2021/08/08 01:09:33;;;;;;;62.75;19.65;;;15.50;99.90;;;;;;4998344;28;25069;-62
2021/08/08 01:12:00;;;;;;;50.20;18.88;;;15.50;99.90;;;;;;4986678;28;25093;-61
2021/08/08 01:14:27;;;;;;;54.15;18.50;;;15.60;99.90;;;;;;4986692;28;25153;-62
2021/08/08 01:16:53;;;;;;;48.47;17.08;;;15.50;99.90;;;;;;4993496;28;25073;-63
2021/08/08 01:19:21;;;;;;;52.83;17.85;;;15.50;99.90;;;;;;4988359;28;25071;-61
2021/08/08 01:21:49;;;;;;;71.10;20.55;;;15.50;99.90;;;;;;4985873;28;25057;-65
2021/08/08 01:24:16;;;;;;;53.83;20.40;;;15.40;99.90;;;;;;4986074;28;25085;-62
2021/08/08 01:26:44;;;;;;;54.47;19.10;;;15.40;99.90;;;;;;4986039;28;25081;-63
2021/08/08 01:29:09;;;;;;;65.10;20.60;;;15.40;99.90;;;;;;4990675;28;25112;-61
2021/08/08 01:31:35;;;;;;;60.95;17.98;;;15.50;99.90;;;;;;4986345;28;25176;-61
2021/08/08 01:34:00;;;;;;;47.08;17.70;;;15.40;99.90;;;;;;4993309;28;25067;-62
2021/08/08 01:36:26;;;;;;;57.50;18.58;;;15.40;99.90;;;;;;4985792;28;25058;-65
2021/08/08 01:39:01;;;;;;;49.00;16.27;;;15.40;99.90;;;;;;4985155;28;25049;-62
2021/08/08 01:41:31;;;;;;;51.40;16.80;;;15.40;99.90;;;;;;4985573;28;25045;-64
2021/08/08 01:43:58;;;;;;;50.88;16.17;;;15.40;99.90;;;;;;4986470;28;25058;-62
2021/08/08 01:46:25;;;;;;;40.28;15.00;;;15.40;99.90;;;;;;4984602;28;25056;-62
2021/08/08 01:48:54;;;;;;;51.60;17.17;;;15.30;99.90;;;;;;4986360;28;25067;-63
2021/08/08 01:51:22;;;;;;;59.85;16.02;;;15.30;99.90;;;;;;4991134;28;25103;-62
2021/08/08 01:53:48;;;;;;;41.95;15.95;;;15.30;99.90;;;;;;5000685;28;25060;-63
2021/08/08 01:56:14;;;;;;;44.83;14.55;;;15.30;99.90;;;;;;4989287;28;25080;-65
2021/08/08 01:58:39;;;;;;;52.35;15.88;;;15.30;99.90;;;;;;4989656;28;25113;-62
2021/08/08 02:01:05;;;;;;;51.55;15.60;;;15.30;99.90;;;;;;4986625;28;25078;-63
2021/08/08 02:03:35;;;;;;;54.50;15.10;;;15.40;99.90;;;;;;4985665;28;25071;-66
2021/08/08 02:06:02;;;;;;;46.97;15.63;;;15.30;99.90;;;;;;4983963;28;25077;-64
2021/08/08 02:08:27;;;;;;;54.35;16.02;;;15.30;99.90;;;;;;4986246;28;25115;-65
2021/08/08 02:10:53;;;;;;;44.20;14.43;;;15.40;99.90;;;;;;4985354;28;25097;-66
2021/08/08 02:13:18;;;;;;;50.47;14.43;;;15.40;99.90;;;;;;4983456;28;25062;-63
2021/08/08 02:15:44;;;;;;;44.65;14.35;;;15.30;99.90;;;;;;4990069;28;25156;-66
2021/08/08 02:18:09;;;;;;;53.58;14.80;;;15.40;99.90;;;;;;4990760;28;25103;-66
2021/08/08 02:20:35;;;;;;;45.25;13.90;;;15.40;99.90;;;;;;4985222;28;25081;-67
2021/08/08 02:23:01;;;;;;;45.83;13.63;;;15.30;99.90;;;;;;4985698;28;25058;-66
2021/08/08 02:25:26;;;;;;;50.60;14.20;;;15.40;99.90;;;;;;4986417;28;25133;-67
2021/08/08 02:27:52;;;;;;;39.60;12.35;;;15.30;99.90;;;;;;4986323;28;25139;-70
2021/08/08 02:30:17;;;;;;;38.47;12.65;;;15.30;99.90;;;;;;4988351;28;25112;-66
2021/08/08 02:32:43;;;;;;;38.00;13.10;;;15.40;99.90;;;;;;4989377;28;25089;-66
2021/08/08 02:35:09;;;;;;;35.03;12.07;;;15.40;99.90;;;;;;4989209;28;25069;-67
2021/08/08 02:37:35;;;;;;;50.53;13.35;;;15.40;99.90;;;;;;4990102;28;25077;-66
2021/08/08 02:40:00;;;;;;;56.15;14.52;;;15.40;99.90;;;;;;4988869;28;25092;-65
2021/08/08 02:42:26;;;;;;;47.70;11.98;;;15.40;99.90;;;;;;4990036;28;25100;-67
2021/08/08 02:44:52;;;;;;;53.10;14.77;;;15.40;99.90;;;;;;4989471;28;25152;-67
2021/08/08 02:47:17;;;;;;;52.72;14.23;;;15.50;99.90;;;;;;4988858;28;25134;-66
2021/08/08 02:49:43;;;;;;;36.15;12.50;;;15.40;99.90;;;;;;4989775;28;25081;-64
2021/08/08 02:52:08;;;;;;;50.67;13.88;;;15.40;99.90;;;;;;4986283;28;25076;-63
2021/08/08 02:54:34;;;;;;;52.28;16.38;;;15.40;99.90;;;;;;4985552;28;25074;-63
2021/08/08 02:56:59;;;;;;;48.53;16.38;;;15.40;99.90;;;;;;4987709;28;25058;-62
2021/08/08 02:59:25;;;;;;;47.53;16.60;;;15.40;99.90;;;;;;4989937;28;25065;-61
2021/08/08 03:01:50;;;;;;;42.85;16.95;;;15.40;99.90;;;;;;4989062;28;25139;-62
2021/08/08 03:04:16;;;;;;;59.92;17.15;;;15.40;99.90;;;;;;4988406;28;25070;-63
2021/08/08 03:06:46;;;;;;;51.08;15.60;;;15.40;99.90;;;;;;4988247;28;25088;-63
2021/08/08 03:09:12;;;;;;;37.83;14.20;;;15.40;99.90;;;;;;4987884;28;25131;-61
2021/08/08 03:11:45;;;;;;;50.50;15.77;;;15.40;99.90;;;;;;4988766;28;25132;-62
2021/08/08 03:14:11;;;;;;;49.00;14.85;;;15.30;99.90;;;;;;4987930;28;25108;-62
2021/08/08 03:16:36;;;;;;;42.40;15.13;;;15.30;99.90;;;;;;4991662;28;25080;-63
2021/08/08 03:19:02;;;;;;;43.13;15.20;;;15.30;99.90;;;;;;4988129;28;25072;-62
2021/08/08 03:21:28;;;;;;;45.88;15.23;;;15.30;99.90;;;;;;4990073;28;25069;-64
2021/08/08 03:23:53;;;;;;;50.30;14.80;;;15.30;99.90;;;;;;4981555;28;25089;-62
2021/08/08 03:26:19;;;;;;;57.10;14.32;;;15.30;99.90;;;;;;4988635;28;25089;-63
2021/08/08 03:28:44;;;;;;;46.00;14.70;;;15.30;99.90;;;;;;4987562;28;25063;-68
2021/08/08 03:31:10;;;;;;;41.53;12.75;;;15.30;99.90;;;;;;4989175;28;25127;-63
2021/08/08 03:33:36;;;;;;;40.78;12.00;;;15.20;99.90;;;;;;4988505;28;25072;-61
2021/08/08 03:36:02;;;;;;;42.53;13.02;;;15.30;99.90;;;;;;4989447;28;25083;-62
2021/08/08 03:38:27;;;;;;;46.50;11.65;;;15.40;99.90;;;;;;4988038;28;25076;-63
2021/08/08 03:40:53;;;;;;;42.75;10.60;;;15.30;99.90;;;;;;4987144;28;25120;-63
2021/08/08 03:43:20;;;;;;;37.60;10.98;;;15.30;99.90;;;;;;4993674;28;25050;-65
2021/08/08 03:45:45;;;;;;;37.58;9.50;;;15.30;99.90;;;;;;4989735;28;25064;-62
2021/08/08 03:48:11;;;;;;;36.35;9.85;;;15.20;99.90;;;;;;4988013;28;25073;-62
2021/08/08 03:50:39;;;;;;;41.90;10.70;;;15.20;99.90;;;;;;4987499;28;25072;-62
2021/08/08 03:53:05;;;;;;;35.53;10.10;;;15.30;99.90;;;;;;4988315;28;25127;-64
2021/08/08 03:55:30;;;;;;;39.33;10.93;;;15.20;99.90;;;;;;4987683;28;25078;-67
2021/08/08 03:57:57;;;;;;;35.53;10.13;;;15.20;99.90;;;;;;4989035;28;25172;-65
2021/08/08 04:00:23;;;;;;;36.40;10.90;;;15.20;99.90;;;;;;4989388;28;25077;-63
2021/08/08 04:02:49;;;;;;;35.88;11.00;;;15.30;99.90;;;;;;4991908;28;25089;-61
2021/08/08 04:05:15;;;;;;;49.42;10.90;;;15.30;99.90;;;;;;4988172;28;25160;-64
2021/08/08 04:07:40;;;;;;;51.78;11.20;;;15.20;99.90;;;;;;4986561;28;25084;-62
2021/08/08 04:10:06;;;;;;;52.08;11.60;;;15.20;99.90;;;;;;4990267;28;25107;-63
2021/08/08 04:12:32;;;;;;;41.08;10.45;;;15.30;99.90;;;;;;4986993;28;25081;-63
2021/08/08 04:14:57;;;;;;;49.28;10.93;;;15.30;99.90;;;;;;4988111;28;25095;-64
2021/08/08 04:17:23;;;;;;;44.10;10.43;;;15.30;99.90;;;;;;4983720;28;25139;-66
2021/08/08 04:19:48;;;;;;;42.42;11.57;;;15.30;99.90;;;;;;4989364;28;25081;-65
2021/08/08 04:22:14;;;;;;;50.67;10.88;;;15.30;99.90;;;;;;4993642;28;25109;-65
2021/08/08 04:24:39;;;;;;;43.75;10.82;;;15.30;99.90;;;;;;4987311;28;25138;-67
2021/08/08 04:27:05;;;;;;;42.63;11.18;;;15.30;99.90;;;;;;4987641;28;25151;-66
2021/08/08 04:29:30;;;;;;;53.75;10.52;;;15.20;99.90;;;;;;4986008;28;25067;-64
2021/08/08 04:31:56;;;;;;;39.25;9.55;;;15.30;99.90;;;;;;4994631;28;25050;-66
2021/08/08 04:34:22;;;;;;;45.30;10.05;;;15.30;99.90;;;;;;4991043;28;25056;-65
2021/08/08 04:36:48;;;;;;;38.78;9.43;;;15.30;99.90;;;;;;4999189;28;25103;-67
2021/08/08 04:39:13;;;;;;;44.05;11.07;;;15.30;99.90;;;;;;4988092;28;25056;-64
2021/08/08 04:41:39;;;;;;;49.95;11.15;;;15.40;99.90;;;;;;4986774;28;25102;-67
2021/08/08 04:44:04;;;;;;;33.83;10.80;;;15.30;99.90;;;;;;4987131;28;25082;-66
2021/08/08 04:46:30;;;;;;;40.88;9.63;;;15.40;99.90;;;;;;4999583;28;25094;-66
2021/08/08 04:48:55;;;;;;;45.03;9.73;;;15.30;99.90;;;;;;4990379;28;25085;-67
2021/08/08 04:51:22;;;;;;;36.50;8.88;;;15.30;99.90;;;;;;4992719;28;25106;-67
2021/08/08 04:53:47;;;;;;;34.22;9.00;;;15.30;99.90;;;;;;4989421;28;25056;-68
2021/08/08 04:56:13;;;;;;;45.92;9.63;;;15.30;99.90;;;;;;4999603;28;25146;-67
2021/08/08 04:58:38;;;;;;;35.13;9.95;;;15.30;99.90;;;;;;4987136;28;25055;-65
2021/08/08 05:01:04;;;;;;;41.90;9.15;;;15.30;99.90;;;;;;4973359;28;25069;-66
2021/08/08 05:03:29;;;;;;;33.10;7.88;;;15.30;99.90;;;;;;4987853;28;25064;-67
2021/08/08 05:05:55;;;;;;;43.92;8.43;;;15.20;99.90;;;;;;4986501;28;25122;-66
2021/08/08 05:08:20;;;;;;;33.30;8.10;;;15.20;99.90;;;;;;4987954;28;25091;-67
2021/08/08 05:10:46;;;;;;;30.02;7.80;;;15.20;99.90;;;;;;4987541;28;25117;-67
2021/08/08 05:13:11;;;;;;;36.30;8.40;;;15.30;99.90;;;;;;4973902;28;25118;-67
2021/08/08 05:15:37;;;;;;;36.40;8.77;;;15.30;99.90;;;;;;4987460;28;25073;-64
2021/08/08 05:18:02;;;;;;;21.80;7.70;;;15.30;99.90;;;;;;4983416;28;25116;-65
2021/08/08 05:20:28;;;;;;;27.20;8.50;;;15.20;99.90;;;;;;4980277;28;25106;-67
2021/08/08 05:22:54;;;;;;;46.28;9.07;;;15.30;99.90;;;;;;4985001;28;25099;-65
2021/08/08 05:25:19;;;;;;;34.85;8.02;;;15.30;99.90;;;;;;4986413;28;25076;-66
2021/08/08 05:27:45;;;;;;;34.50;7.90;;;15.30;99.90;;;;;;4984481;28;25075;-67
2021/08/08 05:30:12;;;;;;;33.33;8.32;;;15.40;99.90;;;;;;4991272;28;25340;-66
2021/08/08 05:32:38;;;;;;;29.52;7.90;;;15.40;99.90;;;;;;4990751;28;25058;-65
2021/08/08 05:35:05;;;;;;;29.05;6.43;;;15.40;99.90;;;;;;4986809;28;25101;-66
2021/08/08 05:37:30;;;;;;;36.33;6.95;;;15.40;99.90;;;;;;4989958;28;25076;-67
2021/08/08 05:40:03;;;;;;;25.17;7.28;;;15.40;99.90;;;;;;4994248;28;25068;-68
2021/08/08 05:42:29;;;;;;;39.28;7.63;;;15.40;99.90;;;;;;4990160;28;25066;-68
2021/08/08 05:44:54;;;;;;;36.25;7.38;;;15.40;99.90;;;;;;4988348;28;25056;-66
2021/08/08 05:47:20;;;;;;;36.22;6.90;;;15.40;99.90;;;;;;4985691;28;25192;-66
2021/08/08 05:49:45;;;;;;;34.63;7.88;;;15.50;99.90;;;;;;4986339;28;25069;-65
2021/08/08 05:52:12;;;;;;;32.13;7.20;;;15.50;99.90;;;;;;4996120;28;25138;-65
2021/08/08 05:54:38;;;;;;;23.30;6.20;;;15.50;99.90;;;;;;4997450;28;25142;-67
2021/08/08 05:57:03;;;;;;;23.15;6.45;;;15.40;99.90;;;;;;4995537;28;25107;-66
2021/08/08 05:59:29;;;;;;;29.65;6.93;;;15.50;99.90;;;;;;4990928;28;25065;-66
2021/08/08 06:01:54;;;;;;;40.30;7.30;;;15.60;99.90;;;;;;4989010;28;25066;-67
2021/08/08 06:04:20;;;;;;;19.88;6.10;;;15.60;99.90;;;;;;4985533;28;25153;-66
2021/08/08 06:06:45;;;;;;;36.33;6.47;;;15.70;99.90;;;;;;4995141;28;25095;-66
2021/08/08 06:09:11;;;;;;;28.25;6.57;;;15.90;99.90;;;;;;4986165;28;25081;-66
2021/08/08 06:11:37;;;;;;;31.10;6.55;;;15.90;99.90;;;;;;4995464;28;25155;-66
2021/08/08 06:14:03;;;;;;;27.25;5.78;;;15.90;99.90;;;;;;4988713;28;25065;-67
2021/08/08 06:16:29;;;;;;;26.52;5.55;;;15.80;99.90;;;;;;4986754;28;25150;-67
2021/08/08 06:18:54;;;;;;;25.65;5.53;;;15.80;99.90;;;;;;4987339;28;25049;-66
2021/08/08 06:21:20;;;;;;;35.20;6.00;;;15.90;99.90;;;;;;4989959;28;25077;-66
2021/08/08 06:23:45;;;;;;;22.48;5.63;;;16.00;99.90;;;;;;4991042;28;25092;-66
2021/08/08 06:26:11;;;;;;;33.05;6.50;;;16.00;99.90;;;;;;4995445;28;25131;-67
2021/08/08 06:28:37;;;;;;;25.08;4.85;;;16.00;99.90;;;;;;4991506;28;25156;-66
2021/08/08 06:31:02;;;;;;;29.67;5.65;;;16.00;99.90;;;;;;4989131;28;25071;-65
2021/08/08 06:33:28;;;;;;;28.05;5.45;;;16.00;99.90;;;;;;4989367;28;25063;-67
2021/08/08 06:35:54;;;;;;;27.27;4.75;;;16.00;99.90;;;;;;4984579;28;25118;-66
2021/08/08 06:38:20;;;;;;;39.60;7.22;;;16.00;99.90;;;;;;4987446;28;25087;-66
2021/08/08 06:40:45;;;;;;;39.47;6.80;;;16.00;99.90;;;;;;4987806;28;25149;-65
2021/08/08 06:43:11;;;;;;;25.73;5.80;;;16.10;99.90;;;;;;4987348;28;25074;-66
2021/08/08 06:45:37;;;;;;;21.48;5.38;;;16.10;99.90;;;;;;4986381;28;25110;-65
2021/08/08 06:48:02;;;;;;;22.10;5.22;;;16.10;99.90;;;;;;4989460;28;25070;-67
2021/08/08 06:50:29;;;;;;;19.50;5.10;;;16.10;99.90;;;;;;4976993;28;25058;-66
2021/08/08 06:52:56;;;;;;;26.70;4.82;;;16.10;99.90;;;;;;4985523;28;25349;-65
2021/08/08 06:55:21;;;;;;;25.20;5.30;;;16.10;99.90;;;;;;4995380;28;25139;-65
2021/08/08 06:57:47;;;;;;;23.55;5.07;;;16.10;99.90;;;;;;4992607;28;25063;-67
2021/08/08 07:00:13;;;;;;;21.60;5.03;;;16.20;99.90;;;;;;4986682;28;25076;-68
2021/08/08 07:02:38;;;;;;;28.70;5.35;;;16.20;99.90;;;;;;4993850;28;25069;-67
2021/08/08 07:05:05;;;;;;;28.88;6.15;;;16.20;99.90;;;;;;4994323;28;25117;-65
2021/08/08 07:07:31;;;;;;;20.27;4.72;;;16.20;99.90;;;;;;4972667;28;25146;-64
2021/08/08 07:09:56;;;;;;;29.65;5.05;;;16.30;99.90;;;;;;4975958;28;25060;-67
2021/08/08 07:12:22;;;;;;;32.25;4.97;;;16.40;99.90;;;;;;4993581;28;25089;-67
2021/08/08 07:14:48;;;;;;;19.05;3.97;;;16.40;99.90;;;;;;4986954;28;25141;-67
2021/08/08 07:17:14;;;;;;;19.20;4.28;;;16.60;99.90;;;;;;4989000;28;25135;-65
2021/08/08 07:19:39;;;;;;;23.13;4.30;;;16.70;99.90;;;;;;4989996;28;25052;-65
2021/08/08 07:22:05;;;;;;;22.88;4.13;;;16.70;99.90;;;;;;4994686;28;25083;-66
2021/08/08 07:24:31;;;;;;;25.33;4.68;;;16.70;99.90;;;;;;4988617;28;25118;-66
2021/08/08 07:26:57;;;;;;;19.45;4.32;;;16.80;99.90;;;;;;4997633;28;25104;-66
2021/08/08 07:29:22;;;;;;;20.33;4.78;;;16.80;99.90;;;;;;4992629;28;25070;-64
2021/08/08 07:31:48;;;;;;;20.25;4.68;;;16.80;99.90;;;;;;4994006;28;25089;-64
2021/08/08 07:34:14;;;;;;;27.15;4.70;;;16.80;99.90;;;;;;4997802;28;25103;-68
2021/08/08 07:36:39;;;;;;;21.25;4.95;;;16.60;99.90;;;;;;4996161;28;25067;-68
2021/08/08 07:39:05;;;;;;;25.60;5.32;;;16.60;99.90;;;;;;5000145;28;25062;-66
2021/08/08 07:41:30;;;;;;;27.45;5.35;;;16.60;99.90;;;;;;5000735;28;25091;-66
2021/08/08 07:43:56;;;;;;;16.80;4.90;;;16.50;99.90;;;;;;4990082;28;25151;-66
2021/08/08 07:46:21;;;;;;;28.58;5.47;;;16.40;99.90;;;;;;4992652;28;25150;-67
2021/08/08 07:48:47;;;;;;;22.33;4.57;;;16.50;99.90;;;;;;4987244;28;25067;-66
2021/08/08 07:51:13;;;;;;;17.92;4.93;;;16.60;99.90;;;;;;4997676;28;25062;-66
2021/08/08 07:53:40;;;;;;;24.63;5.20;;;16.60;99.90;;;;;;4993198;28;25069;-66
2021/08/08 07:56:06;;;;;;;16.65;4.65;;;16.80;99.90;;;;;;4989279;28;25066;-67
2021/08/08 07:58:32;;;;;;;20.80;4.93;;;16.80;99.90;;;;;;4989023;28;25055;-67
2021/08/08 08:00:57;;;;;;;15.90;4.03;;;16.90;99.90;;;;;;4986697;28;25123;-66
2021/08/08 08:03:23;;;;;;;29.33;4.80;;;16.90;99.90;;;;;;4987129;28;25080;-66
2021/08/08 08:05:49;;;;;;;21.38;5.18;;;16.90;99.90;;;;;;4986289;28;25144;-67
2021/08/08 08:08:14;;;;;;;26.77;4.53;;;16.70;99.90;;;;;;4987332;28;25082;-65
2021/08/08 08:10:40;;;;;;;17.17;4.00;;;16.70;99.90;;;;;;4989361;28;25059;-66
2021/08/08 08:13:06;;;;;;;25.55;5.05;;;16.70;99.90;;;;;;4988189;28;25140;-66
2021/08/08 08:15:31;;;;;;;33.80;5.30;;;16.80;99.90;;;;;;4989129;28;25130;-66
2021/08/08 08:17:57;;;;;;;22.65;4.90;;;16.80;99.90;;;;;;4988185;28;25149;-66
2021/08/08 08:20:23;;;;;;;16.52;4.20;;;16.90;99.90;;;;;;4987411;28;25094;-67
2021/08/08 08:22:49;;;;;;;25.73;4.90;;;16.80;99.90;;;;;;4993649;28;25063;-65
2021/08/08 08:25:14;;;;;;;18.10;4.68;;;16.80;99.90;;;;;;4988648;28;25064;-67
2021/08/08 08:27:41;;;;;;;11.60;3.55;;;16.70;99.90;;;;;;4999398;28;25076;-67
2021/08/08 08:30:08;;;;;;;18.33;4.18;;;16.80;99.90;;;;;;4989640;28;25093;-68
2021/08/08 08:32:33;;;;;;;17.95;4.25;;;16.80;99.90;;;;;;4988368;28;25079;-66
2021/08/08 08:35:02;;;;;;;13.75;3.60;;;16.80;99.90;;;;;;5003360;28;25125;-67
2021/08/08 08:37:28;;;;;;;22.52;4.45;;;16.90;99.90;;;;;;4992317;28;25068;-67
2021/08/08 08:39:54;;;;;;;22.00;4.90;;;16.80;99.90;;;;;;4990633;28;25074;-66
2021/08/08 08:42:21;;;;;;;18.10;4.45;;;16.70;99.90;;;;;;4987381;28;25121;-66
2021/08/08 08:44:47;;;;;;;16.67;4.00;;;16.70;99.90;;;;;;4988373;28;25140;-65
2021/08/08 08:47:14;;;;;;;17.35;3.95;;;16.80;99.90;;;;;;4998180;28;25145;-66
2021/08/08 08:49:47;;;;;;;20.42;4.40;;;16.90;99.90;;;;;;4988328;28;25060;-66
2021/08/08 08:52:13;;;;;;;15.23;4.63;;;17.00;99.90;;;;;;4992330;28;25140;-67
2021/08/08 08:54:40;;;;;;;15.55;3.78;;;17.10;99.90;;;;;;4989503;28;25067;-67
2021/08/08 08:57:07;;;;;;;20.83;5.00;;;17.20;99.90;;;;;;4987725;28;25094;-66
2021/08/08 08:59:32;;;;;;;18.05;4.18;;;17.40;99.90;;;;;;4995968;28;25141;-68
2021/08/08 09:01:58;;;;;;;16.17;3.83;;;17.40;99.90;;;;;;4987593;28;25163;-65
2021/08/08 09:04:23;;;;;;;22.35;4.07;;;17.30;99.90;;;;;;4987443;28;25145;-67
2021/08/08 09:06:49;;;;;;;19.02;4.00;;;17.30;99.90;;;;;;4987715;28;25151;-67
2021/08/08 09:09:15;;;;;;;22.90;4.30;;;17.20;99.90;;;;;;4987321;28;25074;-66
2021/08/08 09:11:43;;;;;;;21.85;4.68;;;17.10;99.90;;;;;;4988623;28;25076;-67
2021/08/08 09:14:10;;;;;;;20.98;4.65;;;17.10;99.90;;;;;;4988053;28;25135;-66
2021/08/08 09:16:39;;;;;;;16.77;3.45;;;17.20;99.90;;;;;;4986584;28;25141;-67
2021/08/08 09:19:05;;;;;;;21.15;3.88;;;17.30;99.90;;;;;;4986654;28;25054;-66
2021/08/08 09:21:34;;;;;;;11.90;3.25;;;17.20;99.90;;;;;;4993896;28;25061;-68
2021/08/08 09:24:02;;;;;;;16.95;4.45;;;17.30;99.90;;;;;;4987298;28;25073;-68
2021/08/08 09:26:29;;;;;;;15.18;3.85;;;17.30;99.90;;;;;;4991331;28;25067;-69
2021/08/08 09:29:15;;;;;;;18.15;4.32;;;17.50;99.90;;;;;;4994605;28;25152;-66
2021/08/08 09:31:46;;;;;;;15.52;3.88;;;17.50;99.90;;;;;;4989742;28;25060;-68
2021/08/08 09:34:24;;;;;;;14.65;3.42;;;17.60;99.90;;;;;;4989554;28;25117;-68
2021/08/08 09:36:50;;;;;;;19.75;3.47;;;17.80;99.90;;;;;;4997832;28;25056;-67
2021/08/08 09:39:30;;;;;;;18.17;4.65;;;17.90;99.90;;;;;;4999307;28;25098;-68
2021/08/08 09:42:24;;;;;;;20.88;3.70;;;18.00;99.90;;;;;;4989198;28;25063;-68
2021/08/08 09:45:03;;;;;;;16.02;4.22;;;18.20;99.90;;;;;;4986132;28;25153;-67
2021/08/08 09:47:38;;;;;;;16.35;3.20;;;18.20;99.90;;;;;;4991134;28;25065;-67
2021/08/08 09:50:05;;;;;;;16.52;4.00;;;18.10;99.90;;;;;;4986520;28;25083;-68
2021/08/08 09:52:36;;;;;;;15.25;3.92;;;18.10;99.90;;;;;;4984676;28;25061;-66
2021/08/08 09:55:03;;;;;;;19.65;4.25;;;18.20;99.90;;;;;;4988235;28;25074;-67
2021/08/08 09:57:39;;;;;;;16.17;3.72;;;18.20;99.90;;;;;;4990881;28;25140;-67
2021/08/08 10:00:05;;;;;;;18.95;4.15;;;18.10;99.90;;;;;;4986665;28;25104;-66
2021/08/08 10:02:31;;;;;;;10.77;3.42;;;18.30;99.90;;;;;;4992983;28;25070;-68
2021/08/08 10:04:56;;;;;;;8.60;3.13;;;18.20;99.90;;;;;;4991989;28;25084;-67
2021/08/08 10:07:22;;;;;;;15.43;3.42;;;18.30;99.90;;;;;;4992277;28;25123;-67
2021/08/08 10:09:49;;;;;;;12.32;3.28;;;18.20;99.90;;;;;;4992124;28;25065;-66
2021/08/08 10:12:43;;;;;;;14.55;3.30;;;18.10;99.90;;;;;;4996493;28;25048;-67
2021/08/08 10:15:14;;;;;;;16.80;2.75;;;18.00;99.90;;;;;;4990588;28;25082;-68
2021/08/08 10:17:42;;;;;;;15.52;3.45;;;18.00;99.90;;;;;;4990336;28;25097;-67
2021/08/08 10:20:08;;;;;;;13.60;3.05;;;18.10;99.90;;;;;;4988469;28;25090;-68
2021/08/08 10:22:35;;;;;;;11.68;2.92;;;18.20;99.90;;;;;;4989428;28;25066;-69
2021/08/08 10:25:02;;;;;;;15.50;3.10;;;18.20;99.90;;;;;;4989829;28;25103;-67
2021/08/08 10:27:29;;;;;;;8.02;2.63;;;18.20;99.90;;;;;;4990332;28;25109;-68
2021/08/08 10:30:08;;;;;;;13.95;3.00;;;18.30;99.90;;;;;;4990911;28;25062;-67
2021/08/08 10:32:34;;;;;;;17.42;3.30;;;18.50;99.90;;;;;;4993162;28;25156;-67
2021/08/08 10:35:12;;;;;;;14.25;3.03;;;18.60;99.90;;;;;;4990513;28;25099;-67
2021/08/08 10:37:39;;;;;;;12.60;3.00;;;18.50;99.90;;;;;;4984358;28;25182;-66
2021/08/08 10:40:05;;;;;;;12.30;3.15;;;18.40;99.90;;;;;;4990304;28;25077;-68
2021/08/08 10:42:41;;;;;;;12.98;3.08;;;18.40;99.90;;;;;;4994632;28;25077;-68
2021/08/08 10:45:07;;;;;;;11.50;2.67;;;18.50;99.90;;;;;;4994753;28;25114;-68
2021/08/08 10:47:33;;;;;;;9.82;2.80;;;18.70;99.90;;;;;;4992369;28;25081;-67
2021/08/08 10:50:16;;;;;;;12.52;3.65;;;18.60;99.90;;;;;;4993300;28;25054;-68
2021/08/08 10:52:44;;;;;;;15.13;3.25;;;18.60;99.90;;;;;;4993873;28;25061;-68
2021/08/08 10:55:29;;;;;;;13.98;2.92;;;18.60;99.90;;;;;;4994638;28;25060;-66
2021/08/08 10:57:55;;;;;;;14.82;2.65;;;18.60;99.90;;;;;;5000116;28;25089;-69
2021/08/08 11:00:21;;;;;;;13.77;3.10;;;18.70;99.90;;;;;;4993335;28;25109;-67
2021/08/08 11:02:48;;;;;;;12.57;3.35;;;18.60;99.90;;;;;;4992234;28;25058;-67
2021/08/08 11:05:14;;;;;;;9.15;2.88;;;18.50;99.90;;;;;;4993100;28;25060;-68
2021/08/08 11:07:42;;;;;;;12.43;3.17;;;18.60;99.90;;;;;;4992516;28;25076;-68
2021/08/08 11:10:09;;;;;;;10.75;3.13;;;18.60;99.90;;;;;;4996565;28;25095;-67
2021/08/08 11:12:40;;;;;;;15.88;3.60;;;18.70;99.90;;;;;;5000119;28;25062;-66
2021/08/08 11:15:09;;;;;;;11.40;2.77;;;18.70;99.90;;;;;;5003494;28;25064;-65
2021/08/08 11:17:34;;;;;;;13.55;3.42;;;18.90;99.90;;;;;;4999415;28;25112;-67
2021/08/08 11:20:00;;;;;;;8.88;2.38;;;19.10;99.90;;;;;;4999602;28;25110;-68
2021/08/08 11:22:27;;;;;;;11.15;3.28;;;19.40;99.90;;;;;;5001493;28;25056;-67
2021/08/08 11:25:03;;;;;;;16.05;2.60;;;19.20;99.90;;;;;;4978747;28;25096;-68
2021/08/08 11:27:31;;;;;;;9.88;2.65;;;19.00;99.90;;;;;;4997267;28;25108;-68
2021/08/08 11:29:56;;;;;;;10.13;2.75;;;19.00;99.90;;;;;;4995885;28;25072;-66
2021/08/08 11:32:30;;;;;;;13.32;2.75;;;19.10;99.90;;;;;;4991836;28;25043;-67
2021/08/08 11:35:08;;;;;;;10.30;2.75;;;19.10;99.90;;;;;;4999651;28;25084;-67
2021/08/08 11:37:42;;;;;;;11.00;2.78;;;19.30;99.90;;;;;;4986018;28;25066;-67
2021/08/08 11:40:25;;;;;;;8.07;2.35;;;19.50;99.90;;;;;;4996410;28;25053;-68
2021/08/08 11:42:58;;;;;;;10.77;2.53;;;19.50;99.90;;;;;;4997505;28;25075;-68
2021/08/08 11:46:02;;;;;;;9.20;2.45;;;19.50;99.90;;;;;;4993078;28;25090;-71
2021/08/08 11:48:30;;;;;;;8.88;2.40;;;19.20;99.90;;;;;;4992086;28;25080;-66
2021/08/08 11:51:02;;;;;;;10.70;2.35;;;18.40;99.90;;;;;;4990149;28;25135;-68
2021/08/08 11:53:37;;;;;;;11.68;2.65;;;17.70;99.90;;;;;;4988528;28;25078;-68
2021/08/08 11:56:24;;;;;;;8.85;2.85;;;17.60;99.90;;;;;;4991081;28;25069;-66
2021/08/08 11:58:54;;;;;;;4.95;1.92;;;17.80;99.90;;;;;;4988671;28;25107;-69
2021/08/08 12:01:23;;;;;;;14.48;2.78;;;17.90;99.90;;;;;;4988330;28;25077;-68
2021/08/08 12:03:51;;;;;;;7.70;1.88;;;18.10;99.90;;;;;;4989162;28;25141;-68
2021/08/08 12:06:23;;;;;;;9.85;2.50;;;18.20;99.90;;;;;;4989173;28;25074;-68
2021/08/08 12:08:50;;;;;;;5.78;1.92;;;18.20;99.90;;;;;;4989075;28;25139;-67
2021/08/08 12:11:19;;;;;;;10.60;2.08;;;18.40;99.90;;;;;;4988542;28;25164;-69
2021/08/08 12:13:46;;;;;;;6.93;2.00;;;18.80;99.90;;;;;;4992539;28;25062;-68
2021/08/08 12:16:14;;;;;;;8.30;2.85;;;19.30;99.90;;;;;;4988247;28;25141;-69
2021/08/08 12:18:40;;;;;;;6.45;2.35;;;19.60;99.90;;;;;;4994159;28;25071;-68
2021/08/08 12:21:16;;;;;;;7.63;2.00;;;19.70;99.90;;;;;;4991675;28;25060;-66
2021/08/08 12:23:42;;;;;;;7.05;1.75;;;19.50;99.90;;;;;;4991714;28;25054;-67
2021/08/08 12:26:07;;;;;;;9.18;2.15;;;19.50;99.90;;;;;;4987722;28;25077;-67
2021/08/08 12:28:33;;;;;;;9.10;2.03;;;19.70;99.90;;;;;;4988612;28;25074;-68
2021/08/08 12:31:10;;;;;;;12.90;2.63;;;20.00;99.90;;;;;;4999779;28;25073;-68
2021/08/08 12:33:36;;;;;;;6.32;1.90;;;20.00;99.90;;;;;;4978683;28;25056;-67